sensor_id;sensor_type;location;lat;lon;timestamp;P1;durP1;ratioP1;P2;durP2;ratioP2
27684;SDS011;46113;50.130;8.526;2023-10-13T00:00:41;14.38;;;5.05;;
27684;SDS011;46113;50.130;8.526;2023-10-13T00:03:08;10.30;;;4.35;;
27684;SDS011;46113;50.130;8.526;2023-10-13T00:05:42;13.13;;;4.18;;
27684;SDS011;46113;50.130;8.526;2023-10-13T00:08:09;11.85;;;4.57;;
27684;SDS011;46113;50.130;8.526;2023-10-13T00:10:36;6.25;;;4.78;;
27684;SDS011;46113;50.130;8.526;2023-10-13T00:13:03;12.95;;;5.32;;
27684;SDS011;46113;50.130;8.526;2023-10-13T00:15:40;13.82;;;5.28;;
27684;SDS011;46113;50.130;8.526;2023-10-13T00:18:18;7.57;;;4.85;;
27684;SDS011;46113;50.130;8.526;2023-10-13T00:20:45;6.65;;;4.70;;
27684;SDS011;46113;50.130;8.526;2023-10-13T00:23:16;8.35;;;5.30;;
27684;SDS011;46113;50.130;8.526;2023-10-13T00:25:48;20.10;;;4.90;;
27684;SDS011;46113;50.130;8.526;2023-10-13T00:28:24;11.70;;;4.57;;
27684;SDS011;46113;50.130;8.526;2023-10-13T00:31:02;5.68;;;4.32;;
27684;SDS011;46113;50.130;8.526;2023-10-13T00:33:38;8.50;;;4.40;;
27684;SDS011;46113;50.130;8.526;2023-10-13T00:36:05;8.48;;;4.40;;
27684;SDS011;46113;50.130;8.526;2023-10-13T00:38:34;11.07;;;4.90;;
27684;SDS011;46113;50.130;8.526;2023-10-13T00:41:04;12.52;;;4.75;;
27684;SDS011;46113;50.130;8.526;2023-10-13T00:43:45;10.80;;;4.38;;
27684;SDS011;46113;50.130;8.526;2023-10-13T00:46:34;12.13;;;4.45;;
27684;SDS011;46113;50.130;8.526;2023-10-13T00:49:03;8.07;;;4.40;;
27684;SDS011;46113;50.130;8.526;2023-10-13T00:51:35;11.57;;;5.00;;
27684;SDS011;46113;50.130;8.526;2023-10-13T00:54:02;8.77;;;4.00;;
27684;SDS011;46113;50.130;8.526;2023-10-13T00:56:40;8.38;;;4.03;;
27684;SDS011;46113;50.130;8.526;2023-10-13T00:59:15;4.85;;;3.75;;
27684;SDS011;46113;50.130;8.526;2023-10-13T01:01:42;11.73;;;4.20;;
27684;SDS011;46113;50.130;8.526;2023-10-13T01:04:10;10.63;;;4.85;;
27684;SDS011;46113;50.130;8.526;2023-10-13T01:06:41;8.27;;;3.55;;
27684;SDS011;46113;50.130;8.526;2023-10-13T01:09:08;11.80;;;4.18;;
27684;SDS011;46113;50.130;8.526;2023-10-13T01:11:43;13.25;;;4.55;;
27684;SDS011;46113;50.130;8.526;2023-10-13T01:14:20;6.13;;;3.92;;
27684;SDS011;46113;50.130;8.526;2023-10-13T01:16:48;7.45;;;4.13;;
27684;SDS011;46113;50.130;8.526;2023-10-13T01:19:19;7.40;;;4.13;;
27684;SDS011;46113;50.130;8.526;2023-10-13T01:21:51;6.03;;;3.90;;
27684;SDS011;46113;50.130;8.526;2023-10-13T01:24:29;11.85;;;4.30;;
27684;SDS011;46113;50.130;8.526;2023-10-13T01:26:57;12.82;;;4.50;;
27684;SDS011;46113;50.130;8.526;2023-10-13T01:29:30;7.90;;;3.45;;
27684;SDS011;46113;50.130;8.526;2023-10-13T01:31:56;10.68;;;4.07;;
27684;SDS011;46113;50.130;8.526;2023-10-13T01:34:23;12.93;;;4.75;;
27684;SDS011;46113;50.130;8.526;2023-10-13T01:36:54;7.43;;;4.35;;
27684;SDS011;46113;50.130;8.526;2023-10-13T01:39:25;9.45;;;4.20;;
27684;SDS011;46113;50.130;8.526;2023-10-13T01:41:58;24.98;;;4.68;;
27684;SDS011;46113;50.130;8.526;2023-10-13T01:44:25;7.13;;;4.57;;
27684;SDS011;46113;50.130;8.526;2023-10-13T01:49:32;5.80;;;4.20;;
27684;SDS011;46113;50.130;8.526;2023-10-13T01:52:09;10.77;;;3.92;;
27684;SDS011;46113;50.130;8.526;2023-10-13T01:54:38;7.75;;;4.30;;
27684;SDS011;46113;50.130;8.526;2023-10-13T01:57:07;6.47;;;4.45;;
27684;SDS011;46113;50.130;8.526;2023-10-13T01:59:34;8.80;;;4.30;;
27684;SDS011;46113;50.130;8.526;2023-10-13T02:02:10;5.53;;;4.18;;
27684;SDS011;46113;50.130;8.526;2023-10-13T02:04:42;6.88;;;4.30;;
27684;SDS011;46113;50.130;8.526;2023-10-13T02:07:10;10.02;;;4.63;;
27684;SDS011;46113;50.130;8.526;2023-10-13T02:09:41;9.07;;;5.20;;
27684;SDS011;46113;50.130;8.526;2023-10-13T02:12:09;10.60;;;4.32;;
27684;SDS011;46113;50.130;8.526;2023-10-13T02:14:40;9.77;;;4.82;;
27684;SDS011;46113;50.130;8.526;2023-10-13T02:17:14;11.02;;;4.50;;
27684;SDS011;46113;50.130;8.526;2023-10-13T02:19:42;12.00;;;4.88;;
27684;SDS011;46113;50.130;8.526;2023-10-13T02:22:13;8.55;;;3.63;;
27684;SDS011;46113;50.130;8.526;2023-10-13T02:24:58;11.15;;;4.63;;
27684;SDS011;46113;50.130;8.526;2023-10-13T02:30:09;9.00;;;4.43;;
27684;SDS011;46113;50.130;8.526;2023-10-13T02:32:41;13.77;;;4.60;;
27684;SDS011;46113;50.130;8.526;2023-10-13T02:35:10;10.82;;;4.20;;
27684;SDS011;46113;50.130;8.526;2023-10-13T02:37:42;8.07;;;4.22;;
27684;SDS011;46113;50.130;8.526;2023-10-13T02:40:20;6.13;;;3.47;;
27684;SDS011;46113;50.130;8.526;2023-10-13T02:42:49;5.07;;;3.72;;
27684;SDS011;46113;50.130;8.526;2023-10-13T02:45:16;14.75;;;3.70;;
27684;SDS011;46113;50.130;8.526;2023-10-13T02:47:48;11.05;;;4.57;;
27684;SDS011;46113;50.130;8.526;2023-10-13T02:50:34;11.25;;;4.50;;
27684;SDS011;46113;50.130;8.526;2023-10-13T02:53:01;11.63;;;5.38;;
27684;SDS011;46113;50.130;8.526;2023-10-13T02:55:28;8.00;;;4.25;;
27684;SDS011;46113;50.130;8.526;2023-10-13T02:57:58;10.65;;;4.80;;
27684;SDS011;46113;50.130;8.526;2023-10-13T03:00:25;9.57;;;4.10;;
27684;SDS011;46113;50.130;8.526;2023-10-13T03:05:25;10.07;;;4.25;;
27684;SDS011;46113;50.130;8.526;2023-10-13T03:07:58;9.43;;;4.35;;
27684;SDS011;46113;50.130;8.526;2023-10-13T03:10:25;9.38;;;3.78;;
27684;SDS011;46113;50.130;8.526;2023-10-13T03:12:55;7.35;;;4.47;;
27684;SDS011;46113;50.130;8.526;2023-10-13T03:15:22;8.15;;;4.10;;
27684;SDS011;46113;50.130;8.526;2023-10-13T03:17:56;9.50;;;3.72;;
27684;SDS011;46113;50.130;8.526;2023-10-13T03:20:25;8.80;;;4.68;;
27684;SDS011;46113;50.130;8.526;2023-10-13T03:22:58;6.53;;;4.10;;
27684;SDS011;46113;50.130;8.526;2023-10-13T03:25:26;11.40;;;4.40;;
27684;SDS011;46113;50.130;8.526;2023-10-13T03:27:56;10.77;;;4.45;;
27684;SDS011;46113;50.130;8.526;2023-10-13T03:30:27;7.05;;;4.35;;
27684;SDS011;46113;50.130;8.526;2023-10-13T03:33:02;5.85;;;3.50;;
27684;SDS011;46113;50.130;8.526;2023-10-13T03:35:34;8.27;;;4.35;;
27684;SDS011;46113;50.130;8.526;2023-10-13T03:38:04;11.10;;;4.53;;
27684;SDS011;46113;50.130;8.526;2023-10-13T03:40:47;9.73;;;4.70;;
27684;SDS011;46113;50.130;8.526;2023-10-13T03:43:33;12.70;;;5.85;;
27684;SDS011;46113;50.130;8.526;2023-10-13T03:46:11;13.35;;;4.03;;
27684;SDS011;46113;50.130;8.526;2023-10-13T03:48:38;12.13;;;4.15;;
27684;SDS011;46113;50.130;8.526;2023-10-13T03:51:18;10.88;;;4.38;;
27684;SDS011;46113;50.130;8.526;2023-10-13T03:53:46;10.80;;;4.03;;
27684;SDS011;46113;50.130;8.526;2023-10-13T03:56:23;9.85;;;4.43;;
27684;SDS011;46113;50.130;8.526;2023-10-13T03:58:58;9.18;;;4.10;;
27684;SDS011;46113;50.130;8.526;2023-10-13T04:01:47;7.68;;;4.45;;
27684;SDS011;46113;50.130;8.526;2023-10-13T04:04:28;11.63;;;4.78;;
27684;SDS011;46113;50.130;8.526;2023-10-13T04:07:14;13.23;;;4.25;;
27684;SDS011;46113;50.130;8.526;2023-10-13T04:10:06;9.82;;;4.80;;
27684;SDS011;46113;50.130;8.526;2023-10-13T04:12:56;8.43;;;3.95;;
27684;SDS011;46113;50.130;8.526;2023-10-13T04:15:44;11.40;;;5.22;;
27684;SDS011;46113;50.130;8.526;2023-10-13T04:18:31;6.00;;;3.67;;
27684;SDS011;46113;50.130;8.526;2023-10-13T04:21:16;22.38;;;4.95;;
27684;SDS011;46113;50.130;8.526;2023-10-13T04:24:01;16.90;;;4.05;;
27684;SDS011;46113;50.130;8.526;2023-10-13T04:26:50;6.47;;;3.90;;
27684;SDS011;46113;50.130;8.526;2023-10-13T04:29:37;6.68;;;4.47;;
27684;SDS011;46113;50.130;8.526;2023-10-13T04:32:22;7.13;;;4.85;;
27684;SDS011;46113;50.130;8.526;2023-10-13T04:34:56;22.15;;;4.13;;
27684;SDS011;46113;50.130;8.526;2023-10-13T04:37:36;9.43;;;3.50;;
27684;SDS011;46113;50.130;8.526;2023-10-13T04:40:21;9.65;;;5.00;;
27684;SDS011;46113;50.130;8.526;2023-10-13T04:42:52;9.18;;;4.07;;
27684;SDS011;46113;50.130;8.526;2023-10-13T04:45:24;9.30;;;4.82;;
27684;SDS011;46113;50.130;8.526;2023-10-13T04:47:57;8.60;;;4.65;;
27684;SDS011;46113;50.130;8.526;2023-10-13T04:50:47;10.88;;;4.20;;
27684;SDS011;46113;50.130;8.526;2023-10-13T04:53:20;11.18;;;4.25;;
27684;SDS011;46113;50.130;8.526;2023-10-13T04:56:09;12.13;;;4.55;;
27684;SDS011;46113;50.130;8.526;2023-10-13T04:58:59;6.30;;;4.20;;
27684;SDS011;46113;50.130;8.526;2023-10-13T05:01:45;13.70;;;4.38;;
27684;SDS011;46113;50.130;8.526;2023-10-13T05:04:44;9.93;;;4.28;;
27684;SDS011;46113;50.130;8.526;2023-10-13T05:07:49;9.48;;;4.30;;
27684;SDS011;46113;50.130;8.526;2023-10-13T05:10:34;12.20;;;4.63;;
27684;SDS011;46113;50.130;8.526;2023-10-13T05:13:20;6.03;;;3.50;;
27684;SDS011;46113;50.130;8.526;2023-10-13T05:16:06;8.70;;;4.40;;
27684;SDS011;46113;50.130;8.526;2023-10-13T05:18:51;11.88;;;4.95;;
27684;SDS011;46113;50.130;8.526;2023-10-13T05:21:36;7.50;;;5.10;;
27684;SDS011;46113;50.130;8.526;2023-10-13T05:24:23;13.30;;;5.13;;
27684;SDS011;46113;50.130;8.526;2023-10-13T05:27:08;12.05;;;4.45;;
27684;SDS011;46113;50.130;8.526;2023-10-13T05:29:53;9.50;;;4.18;;
27684;SDS011;46113;50.130;8.526;2023-10-13T05:32:39;15.93;;;4.50;;
27684;SDS011;46113;50.130;8.526;2023-10-13T05:35:25;11.20;;;4.75;;
27684;SDS011;46113;50.130;8.526;2023-10-13T05:38:10;11.50;;;4.82;;
27684;SDS011;46113;50.130;8.526;2023-10-13T05:40:57;11.48;;;4.88;;
27684;SDS011;46113;50.130;8.526;2023-10-13T05:43:47;12.00;;;5.15;;
27684;SDS011;46113;50.130;8.526;2023-10-13T05:46:33;10.43;;;5.00;;
27684;SDS011;46113;50.130;8.526;2023-10-13T05:49:08;10.95;;;4.38;;
27684;SDS011;46113;50.130;8.526;2023-10-13T05:51:36;11.75;;;4.20;;
27684;SDS011;46113;50.130;8.526;2023-10-13T05:54:03;9.02;;;4.32;;
27684;SDS011;46113;50.130;8.526;2023-10-13T05:56:39;11.82;;;4.45;;
27684;SDS011;46113;50.130;8.526;2023-10-13T05:59:30;9.38;;;3.90;;
27684;SDS011;46113;50.130;8.526;2023-10-13T06:02:41;6.25;;;3.75;;
27684;SDS011;46113;50.130;8.526;2023-10-13T06:05:27;7.93;;;4.13;;
27684;SDS011;46113;50.130;8.526;2023-10-13T06:08:12;21.98;;;5.28;;
27684;SDS011;46113;50.130;8.526;2023-10-13T06:11:00;12.88;;;4.80;;
27684;SDS011;46113;50.130;8.526;2023-10-13T06:13:47;11.48;;;4.43;;
27684;SDS011;46113;50.130;8.526;2023-10-13T06:16:32;13.07;;;4.05;;
27684;SDS011;46113;50.130;8.526;2023-10-13T06:19:18;6.25;;;4.20;;
27684;SDS011;46113;50.130;8.526;2023-10-13T06:22:03;14.75;;;4.82;;
27684;SDS011;46113;50.130;8.526;2023-10-13T06:24:49;9.75;;;4.22;;
27684;SDS011;46113;50.130;8.526;2023-10-13T06:27:35;10.73;;;4.40;;
27684;SDS011;46113;50.130;8.526;2023-10-13T06:30:20;10.80;;;3.90;;
27684;SDS011;46113;50.130;8.526;2023-10-13T06:32:47;10.65;;;4.28;;
27684;SDS011;46113;50.130;8.526;2023-10-13T06:35:16;15.40;;;4.25;;
27684;SDS011;46113;50.130;8.526;2023-10-13T06:37:52;7.87;;;3.90;;
27684;SDS011;46113;50.130;8.526;2023-10-13T06:40:22;21.75;;;4.43;;
27684;SDS011;46113;50.130;8.526;2023-10-13T06:42:52;14.80;;;4.30;;
27684;SDS011;46113;50.130;8.526;2023-10-13T06:45:21;7.20;;;4.07;;
27684;SDS011;46113;50.130;8.526;2023-10-13T06:47:50;13.07;;;4.10;;
27684;SDS011;46113;50.130;8.526;2023-10-13T06:50:20;9.32;;;3.47;;
27684;SDS011;46113;50.130;8.526;2023-10-13T06:52:51;13.02;;;3.80;;
27684;SDS011;46113;50.130;8.526;2023-10-13T06:55:21;22.10;;;4.82;;
27684;SDS011;46113;50.130;8.526;2023-10-13T06:57:55;6.15;;;3.60;;
27684;SDS011;46113;50.130;8.526;2023-10-13T07:00:32;15.13;;;4.35;;
27684;SDS011;46113;50.130;8.526;2023-10-13T07:03:04;15.27;;;4.60;;
27684;SDS011;46113;50.130;8.526;2023-10-13T07:05:58;6.20;;;3.22;;
27684;SDS011;46113;50.130;8.526;2023-10-13T07:08:28;8.07;;;4.43;;
27684;SDS011;46113;50.130;8.526;2023-10-13T07:10:57;12.50;;;4.25;;
27684;SDS011;46113;50.130;8.526;2023-10-13T07:13:32;13.50;;;4.45;;
27684;SDS011;46113;50.130;8.526;2023-10-13T07:16:04;7.20;;;4.28;;
27684;SDS011;46113;50.130;8.526;2023-10-13T07:18:54;5.47;;;2.92;;
27684;SDS011;46113;50.130;8.526;2023-10-13T07:21:21;8.95;;;3.85;;
27684;SDS011;46113;50.130;8.526;2023-10-13T07:23:58;8.75;;;3.20;;
27684;SDS011;46113;50.130;8.526;2023-10-13T07:26:35;6.88;;;2.90;;
27684;SDS011;46113;50.130;8.526;2023-10-13T07:29:09;10.02;;;3.17;;
27684;SDS011;46113;50.130;8.526;2023-10-13T07:31:40;8.13;;;3.78;;
27684;SDS011;46113;50.130;8.526;2023-10-13T07:34:12;8.15;;;3.97;;
27684;SDS011;46113;50.130;8.526;2023-10-13T07:36:53;7.32;;;3.30;;
27684;SDS011;46113;50.130;8.526;2023-10-13T07:39:28;13.52;;;3.05;;
27684;SDS011;46113;50.130;8.526;2023-10-13T07:42:00;8.95;;;3.00;;
27684;SDS011;46113;50.130;8.526;2023-10-13T07:44:31;12.60;;;3.67;;
27684;SDS011;46113;50.130;8.526;2023-10-13T07:47:02;9.73;;;4.50;;
27684;SDS011;46113;50.130;8.526;2023-10-13T07:49:37;4.70;;;2.75;;
27684;SDS011;46113;50.130;8.526;2023-10-13T07:52:07;6.70;;;3.25;;
27684;SDS011;46113;50.130;8.526;2023-10-13T07:54:47;9.30;;;3.55;;
27684;SDS011;46113;50.130;8.526;2023-10-13T07:57:15;9.55;;;2.67;;
27684;SDS011;46113;50.130;8.526;2023-10-13T07:59:43;5.18;;;2.40;;
27684;SDS011;46113;50.130;8.526;2023-10-13T08:02:16;7.63;;;3.43;;
27684;SDS011;46113;50.130;8.526;2023-10-13T08:05:08;14.23;;;3.58;;
27684;SDS011;46113;50.130;8.526;2023-10-13T08:07:35;8.40;;;2.63;;
27684;SDS011;46113;50.130;8.526;2023-10-13T08:10:06;6.82;;;2.53;;
27684;SDS011;46113;50.130;8.526;2023-10-13T08:12:36;7.95;;;3.22;;
27684;SDS011;46113;50.130;8.526;2023-10-13T08:15:04;10.73;;;3.35;;
27684;SDS011;46113;50.130;8.526;2023-10-13T08:17:48;9.52;;;2.92;;
27684;SDS011;46113;50.130;8.526;2023-10-13T08:20:18;9.35;;;3.25;;
27684;SDS011;46113;50.130;8.526;2023-10-13T08:22:47;10.13;;;3.15;;
27684;SDS011;46113;50.130;8.526;2023-10-13T08:25:15;4.60;;;3.28;;
27684;SDS011;46113;50.130;8.526;2023-10-13T08:27:47;12.40;;;3.17;;
27684;SDS011;46113;50.130;8.526;2023-10-13T08:30:52;10.40;;;2.83;;
27684;SDS011;46113;50.130;8.526;2023-10-13T08:33:19;10.63;;;2.97;;
27684;SDS011;46113;50.130;8.526;2023-10-13T08:35:50;4.82;;;2.50;;
27684;SDS011;46113;50.130;8.526;2023-10-13T08:38:52;7.95;;;2.67;;
27684;SDS011;46113;50.130;8.526;2023-10-13T08:41:22;6.78;;;2.90;;
27684;SDS011;46113;50.130;8.526;2023-10-13T08:43:59;7.50;;;2.88;;
27684;SDS011;46113;50.130;8.526;2023-10-13T08:46:30;9.65;;;3.30;;
27684;SDS011;46113;50.130;8.526;2023-10-13T08:49:17;5.53;;;2.35;;
27684;SDS011;46113;50.130;8.526;2023-10-13T08:51:50;13.80;;;2.73;;
27684;SDS011;46113;50.130;8.526;2023-10-13T08:54:37;15.60;;;3.33;;
27684;SDS011;46113;50.130;8.526;2023-10-13T08:57:12;13.93;;;2.97;;
27684;SDS011;46113;50.130;8.526;2023-10-13T08:59:58;5.15;;;2.55;;
27684;SDS011;46113;50.130;8.526;2023-10-13T09:02:45;13.40;;;3.13;;
27684;SDS011;46113;50.130;8.526;2023-10-13T09:05:48;9.25;;;2.92;;
27684;SDS011;46113;50.130;8.526;2023-10-13T09:08:28;9.10;;;3.28;;
27684;SDS011;46113;50.130;8.526;2023-10-13T09:11:02;5.38;;;2.85;;
27684;SDS011;46113;50.130;8.526;2023-10-13T09:13:37;13.82;;;3.55;;
27684;SDS011;46113;50.130;8.526;2023-10-13T09:16:12;11.43;;;3.40;;
27684;SDS011;46113;50.130;8.526;2023-10-13T09:19:22;8.02;;;3.22;;
27684;SDS011;46113;50.130;8.526;2023-10-13T09:21:49;7.15;;;2.92;;
27684;SDS011;46113;50.130;8.526;2023-10-13T09:24:21;8.27;;;3.45;;
27684;SDS011;46113;50.130;8.526;2023-10-13T09:26:50;18.35;;;3.80;;
27684;SDS011;46113;50.130;8.526;2023-10-13T09:29:22;10.80;;;3.03;;
27684;SDS011;46113;50.130;8.526;2023-10-13T09:32:01;9.70;;;3.40;;
27684;SDS011;46113;50.130;8.526;2023-10-13T09:34:31;13.68;;;3.85;;
27684;SDS011;46113;50.130;8.526;2023-10-13T09:37:01;5.72;;;2.60;;
27684;SDS011;46113;50.130;8.526;2023-10-13T09:39:32;16.65;;;3.50;;
27684;SDS011;46113;50.130;8.526;2023-10-13T09:42:12;10.30;;;3.45;;
27684;SDS011;46113;50.130;8.526;2023-10-13T09:44:43;10.77;;;3.38;;
27684;SDS011;46113;50.130;8.526;2023-10-13T09:47:17;9.25;;;3.25;;
27684;SDS011;46113;50.130;8.526;2023-10-13T09:49:59;8.98;;;3.58;;
27684;SDS011;46113;50.130;8.526;2023-10-13T09:52:32;6.70;;;3.45;;
27684;SDS011;46113;50.130;8.526;2023-10-13T09:55:04;5.72;;;3.13;;
27684;SDS011;46113;50.130;8.526;2023-10-13T09:57:47;18.55;;;3.70;;
27684;SDS011;46113;50.130;8.526;2023-10-13T10:00:24;4.38;;;2.60;;
27684;SDS011;46113;50.130;8.526;2023-10-13T10:03:13;12.73;;;3.13;;
27684;SDS011;46113;50.130;8.526;2023-10-13T10:05:42;12.88;;;3.83;;
27684;SDS011;46113;50.130;8.526;2023-10-13T10:08:25;10.32;;;3.80;;
27684;SDS011;46113;50.130;8.526;2023-10-13T10:11:00;6.70;;;3.20;;
27684;SDS011;46113;50.130;8.526;2023-10-13T10:13:35;11.25;;;3.78;;
27684;SDS011;46113;50.130;8.526;2023-10-13T10:16:10;3.58;;;2.55;;
27684;SDS011;46113;50.130;8.526;2023-10-13T10:18:41;9.93;;;4.18;;
27684;SDS011;46113;50.130;8.526;2023-10-13T10:21:08;5.90;;;3.03;;
27684;SDS011;46113;50.130;8.526;2023-10-13T10:23:37;7.10;;;3.20;;
27684;SDS011;46113;50.130;8.526;2023-10-13T10:26:10;5.53;;;2.67;;
27684;SDS011;46113;50.130;8.526;2023-10-13T10:28:51;7.97;;;3.28;;
27684;SDS011;46113;50.130;8.526;2023-10-13T10:31:20;10.73;;;3.80;;
27684;SDS011;46113;50.130;8.526;2023-10-13T10:34:10;5.63;;;3.97;;
27684;SDS011;46113;50.130;8.526;2023-10-13T10:36:42;10.93;;;3.13;;
27684;SDS011;46113;50.130;8.526;2023-10-13T10:39:09;7.93;;;3.22;;
27684;SDS011;46113;50.130;8.526;2023-10-13T10:41:38;11.27;;;3.25;;
27684;SDS011;46113;50.130;8.526;2023-10-13T10:44:14;6.88;;;3.58;;
27684;SDS011;46113;50.130;8.526;2023-10-13T10:46:43;8.45;;;3.22;;
27684;SDS011;46113;50.130;8.526;2023-10-13T10:49:25;8.02;;;2.80;;
27684;SDS011;46113;50.130;8.526;2023-10-13T10:51:58;4.57;;;3.30;;
27684;SDS011;46113;50.130;8.526;2023-10-13T10:54:30;6.40;;;3.92;;
27684;SDS011;46113;50.130;8.526;2023-10-13T10:56:58;8.00;;;2.80;;
27684;SDS011;46113;50.130;8.526;2023-10-13T10:59:38;11.15;;;3.75;;
27684;SDS011;46113;50.130;8.526;2023-10-13T11:02:06;7.95;;;3.58;;
27684;SDS011;46113;50.130;8.526;2023-10-13T11:04:35;4.43;;;2.70;;
27684;SDS011;46113;50.130;8.526;2023-10-13T11:07:10;7.53;;;3.00;;
27684;SDS011;46113;50.130;8.526;2023-10-13T11:09:50;10.68;;;3.00;;
27684;SDS011;46113;50.130;8.526;2023-10-13T11:12:19;14.68;;;3.40;;
27684;SDS011;46113;50.130;8.526;2023-10-13T11:15:02;6.63;;;3.50;;
27684;SDS011;46113;50.130;8.526;2023-10-13T11:17:41;8.88;;;3.72;;
27684;SDS011;46113;50.130;8.526;2023-10-13T11:20:10;7.18;;;3.30;;
27684;SDS011;46113;50.130;8.526;2023-10-13T11:22:52;12.70;;;4.00;;
27684;SDS011;46113;50.130;8.526;2023-10-13T11:25:23;10.02;;;3.55;;
27684;SDS011;46113;50.130;8.526;2023-10-13T11:27:56;5.25;;;2.78;;
27684;SDS011;46113;50.130;8.526;2023-10-13T11:30:32;5.35;;;2.50;;
27684;SDS011;46113;50.130;8.526;2023-10-13T11:33:03;5.63;;;3.70;;
27684;SDS011;46113;50.130;8.526;2023-10-13T11:35:35;14.23;;;3.22;;
27684;SDS011;46113;50.130;8.526;2023-10-13T11:38:20;6.07;;;3.13;;
27684;SDS011;46113;50.130;8.526;2023-10-13T11:40:59;8.73;;;3.95;;
27684;SDS011;46113;50.130;8.526;2023-10-13T11:46:20;10.18;;;4.00;;
27684;SDS011;46113;50.130;8.526;2023-10-13T11:49:05;4.05;;;2.50;;
27684;SDS011;46113;50.130;8.526;2023-10-13T11:51:51;9.30;;;2.85;;
27684;SDS011;46113;50.130;8.526;2023-10-13T11:54:19;6.28;;;3.28;;
27684;SDS011;46113;50.130;8.526;2023-10-13T11:57:10;7.25;;;3.00;;
27684;SDS011;46113;50.130;8.526;2023-10-13T11:59:37;4.95;;;3.15;;
27684;SDS011;46113;50.130;8.526;2023-10-13T12:02:10;9.25;;;3.47;;
27684;SDS011;46113;50.130;8.526;2023-10-13T12:04:40;7.97;;;3.55;;
27684;SDS011;46113;50.130;8.526;2023-10-13T12:07:20;6.97;;;2.85;;
27684;SDS011;46113;50.130;8.526;2023-10-13T12:09:50;8.32;;;2.72;;
27684;SDS011;46113;50.130;8.526;2023-10-13T12:12:57;5.25;;;3.08;;
27684;SDS011;46113;50.130;8.526;2023-10-13T12:15:59;5.22;;;3.20;;
27684;SDS011;46113;50.130;8.526;2023-10-13T12:18:43;3.25;;;2.92;;
27684;SDS011;46113;50.130;8.526;2023-10-13T12:25:26;11.73;;;3.00;;
27684;SDS011;46113;50.130;8.526;2023-10-13T12:28:42;4.43;;;3.47;;
27684;SDS011;46113;50.130;8.526;2023-10-13T12:31:41;6.25;;;3.00;;
27684;SDS011;46113;50.130;8.526;2023-10-13T12:38:04;5.45;;;3.05;;
27684;SDS011;46113;50.130;8.526;2023-10-13T12:40:32;11.32;;;3.38;;
27684;SDS011;46113;50.130;8.526;2023-10-13T12:43:17;10.57;;;3.47;;
27684;SDS011;46113;50.130;8.526;2023-10-13T12:46:02;8.00;;;3.25;;
27684;SDS011;46113;50.130;8.526;2023-10-13T12:48:48;5.70;;;3.40;;
27684;SDS011;46113;50.130;8.526;2023-10-13T12:51:36;14.52;;;3.83;;
27684;SDS011;46113;50.130;8.526;2023-10-13T12:54:03;6.63;;;2.85;;
27684;SDS011;46113;50.130;8.526;2023-10-13T12:56:52;13.73;;;3.25;;
27684;SDS011;46113;50.130;8.526;2023-10-13T12:59:23;5.82;;;2.85;;
27684;SDS011;46113;50.130;8.526;2023-10-13T13:01:53;7.65;;;2.95;;
27684;SDS011;46113;50.130;8.526;2023-10-13T13:04:20;6.65;;;3.38;;
27684;SDS011;46113;50.130;8.526;2023-10-13T13:06:51;13.32;;;3.08;;
27684;SDS011;46113;50.130;8.526;2023-10-13T13:09:20;4.63;;;3.28;;
27684;SDS011;46113;50.130;8.526;2023-10-13T13:11:57;11.60;;;3.45;;
27684;SDS011;46113;50.130;8.526;2023-10-13T13:14:25;13.38;;;3.25;;
27684;SDS011;46113;50.130;8.526;2023-10-13T13:17:01;11.05;;;3.35;;
27684;SDS011;46113;50.130;8.526;2023-10-13T13:19:35;6.93;;;3.10;;
27684;SDS011;46113;50.130;8.526;2023-10-13T13:22:06;15.02;;;3.42;;
27684;SDS011;46113;50.130;8.526;2023-10-13T13:24:43;9.65;;;3.72;;
27684;SDS011;46113;50.130;8.526;2023-10-13T13:27:15;8.95;;;3.20;;
27684;SDS011;46113;50.130;8.526;2023-10-13T13:29:48;14.63;;;3.40;;
27684;SDS011;46113;50.130;8.526;2023-10-13T13:32:15;7.22;;;3.67;;
27684;SDS011;46113;50.130;8.526;2023-10-13T13:34:45;10.77;;;3.65;;
27684;SDS011;46113;50.130;8.526;2023-10-13T13:37:21;7.68;;;3.45;;
27684;SDS011;46113;50.130;8.526;2023-10-13T13:39:48;12.65;;;3.55;;
27684;SDS011;46113;50.130;8.526;2023-10-13T13:42:18;9.98;;;3.75;;
27684;SDS011;46113;50.130;8.526;2023-10-13T13:44:47;6.45;;;3.15;;
27684;SDS011;46113;50.130;8.526;2023-10-13T13:47:14;10.80;;;3.40;;
27684;SDS011;46113;50.130;8.526;2023-10-13T13:49:41;8.57;;;4.60;;
27684;SDS011;46113;50.130;8.526;2023-10-13T13:52:18;8.00;;;3.17;;
27684;SDS011;46113;50.130;8.526;2023-10-13T13:54:48;13.65;;;3.20;;
27684;SDS011;46113;50.130;8.526;2023-10-13T13:57:15;11.68;;;3.25;;
27684;SDS011;46113;50.130;8.526;2023-10-13T13:59:43;7.82;;;3.10;;
27684;SDS011;46113;50.130;8.526;2023-10-13T14:02:12;12.13;;;3.80;;
27684;SDS011;46113;50.130;8.526;2023-10-13T14:04:47;12.65;;;3.22;;
27684;SDS011;46113;50.130;8.526;2023-10-13T14:07:18;11.07;;;4.28;;
27684;SDS011;46113;50.130;8.526;2023-10-13T14:09:50;9.98;;;3.15;;
27684;SDS011;46113;50.130;8.526;2023-10-13T14:12:32;6.55;;;3.38;;
27684;SDS011;46113;50.130;8.526;2023-10-13T14:15:09;4.93;;;3.00;;
27684;SDS011;46113;50.130;8.526;2023-10-13T14:17:50;6.70;;;3.40;;
27684;SDS011;46113;50.130;8.526;2023-10-13T14:20:17;8.65;;;4.53;;
27684;SDS011;46113;50.130;8.526;2023-10-13T14:22:47;14.65;;;3.97;;
27684;SDS011;46113;50.130;8.526;2023-10-13T14:25:15;10.30;;;3.10;;
27684;SDS011;46113;50.130;8.526;2023-10-13T14:27:44;6.47;;;3.00;;
27684;SDS011;46113;50.130;8.526;2023-10-13T14:30:10;7.80;;;3.30;;
27684;SDS011;46113;50.130;8.526;2023-10-13T14:32:46;13.73;;;3.47;;
27684;SDS011;46113;50.130;8.526;2023-10-13T14:35:13;5.75;;;2.92;;
27684;SDS011;46113;50.130;8.526;2023-10-13T14:37:42;13.65;;;3.22;;
27684;SDS011;46113;50.130;8.526;2023-10-13T14:40:09;13.73;;;3.33;;
27684;SDS011;46113;50.130;8.526;2023-10-13T14:42:39;18.63;;;3.67;;
27684;SDS011;46113;50.130;8.526;2023-10-13T14:45:07;16.67;;;3.55;;
27684;SDS011;46113;50.130;8.526;2023-10-13T14:47:40;15.02;;;3.83;;
27684;SDS011;46113;50.130;8.526;2023-10-13T14:50:08;16.67;;;3.97;;
27684;SDS011;46113;50.130;8.526;2023-10-13T14:52:43;9.95;;;3.75;;
27684;SDS011;46113;50.130;8.526;2023-10-13T14:55:10;4.68;;;3.85;;
27684;SDS011;46113;50.130;8.526;2023-10-13T14:57:46;12.18;;;4.20;;
27684;SDS011;46113;50.130;8.526;2023-10-13T15:00:13;17.92;;;4.30;;
27684;SDS011;46113;50.130;8.526;2023-10-13T15:02:43;14.13;;;3.45;;
27684;SDS011;46113;50.130;8.526;2023-10-13T15:05:10;9.05;;;3.50;;
27684;SDS011;46113;50.130;8.526;2023-10-13T15:07:43;7.80;;;3.60;;
27684;SDS011;46113;50.130;8.526;2023-10-13T15:10:12;5.40;;;3.08;;
27684;SDS011;46113;50.130;8.526;2023-10-13T15:12:41;9.73;;;3.40;;
27684;SDS011;46113;50.130;8.526;2023-10-13T15:15:11;8.30;;;3.28;;
27684;SDS011;46113;50.130;8.526;2023-10-13T15:17:45;4.88;;;3.30;;
27684;SDS011;46113;50.130;8.526;2023-10-13T15:20:12;14.10;;;3.58;;
27684;SDS011;46113;50.130;8.526;2023-10-13T15:22:45;14.33;;;4.13;;
27684;SDS011;46113;50.130;8.526;2023-10-13T15:25:16;7.40;;;2.92;;
27684;SDS011;46113;50.130;8.526;2023-10-13T15:27:59;8.65;;;3.03;;
27684;SDS011;46113;50.130;8.526;2023-10-13T15:30:29;8.43;;;3.25;;
27684;SDS011;46113;50.130;8.526;2023-10-13T15:33:11;7.05;;;3.85;;
27684;SDS011;46113;50.130;8.526;2023-10-13T15:35:40;5.28;;;2.60;;
27684;SDS011;46113;50.130;8.526;2023-10-13T15:38:09;12.23;;;3.60;;
27684;SDS011;46113;50.130;8.526;2023-10-13T15:40:42;8.27;;;2.83;;
27684;SDS011;46113;50.130;8.526;2023-10-13T15:43:11;8.30;;;2.92;;
27684;SDS011;46113;50.130;8.526;2023-10-13T15:45:39;12.82;;;4.47;;
27684;SDS011;46113;50.130;8.526;2023-10-13T15:48:06;13.80;;;3.53;;
27684;SDS011;46113;50.130;8.526;2023-10-13T15:50:36;8.57;;;3.72;;